sensor_id;sensor_type;location;lat;lon;timestamp;temperature;humidity
4425;DHT22;2225;53.568;13.266;2023-11-22T00:01:05;5.40;94.70
4425;DHT22;2225;53.568;13.266;2023-11-22T00:03:33;5.30;94.70
4425;DHT22;2225;53.568;13.266;2023-11-22T00:06:00;5.30;94.70
4425;DHT22;2225;53.568;13.266;2023-11-22T00:08:28;5.30;94.70
4425;DHT22;2225;53.568;13.266;2023-11-22T00:10:56;5.30;94.80
4425;DHT22;2225;53.568;13.266;2023-11-22T00:13:23;5.20;94.90
4425;DHT22;2225;53.568;13.266;2023-11-22T00:15:50;5.20;95.00
4425;DHT22;2225;53.568;13.266;2023-11-22T00:18:17;5.10;95.10
4425;DHT22;2225;53.568;13.266;2023-11-22T00:20:44;5.10;95.10
4425;DHT22;2225;53.568;13.266;2023-11-22T00:23:13;5.10;95.20
4425;DHT22;2225;53.568;13.266;2023-11-22T00:25:40;5.00;95.20
4425;DHT22;2225;53.568;13.266;2023-11-22T00:28:07;5.00;95.20
4425;DHT22;2225;53.568;13.266;2023-11-22T00:30:36;5.00;95.20
4425;DHT22;2225;53.568;13.266;2023-11-22T00:33:03;5.00;95.30
4425;DHT22;2225;53.568;13.266;2023-11-22T00:35:31;4.90;95.20
4425;DHT22;2225;53.568;13.266;2023-11-22T00:37:58;5.00;95.30
4425;DHT22;2225;53.568;13.266;2023-11-22T00:40:25;5.00;95.20
4425;DHT22;2225;53.568;13.266;2023-11-22T00:42:52;4.90;95.20
4425;DHT22;2225;53.568;13.266;2023-11-22T00:45:19;4.90;95.10
4425;DHT22;2225;53.568;13.266;2023-11-22T00:47:46;4.90;95.20
4425;DHT22;2225;53.568;13.266;2023-11-22T00:50:13;4.90;95.00
4425;DHT22;2225;53.568;13.266;2023-11-22T00:52:40;4.90;95.10
4425;DHT22;2225;53.568;13.266;2023-11-22T00:55:11;4.90;95.00
4425;DHT22;2225;53.568;13.266;2023-11-22T00:57:38;4.90;94.90
4425;DHT22;2225;53.568;13.266;2023-11-22T01:00:06;4.90;94.70
4425;DHT22;2225;53.568;13.266;2023-11-22T01:02:36;4.90;94.60
4425;DHT22;2225;53.568;13.266;2023-11-22T01:05:07;4.90;94.50
4425;DHT22;2225;53.568;13.266;2023-11-22T01:07:38;4.90;94.40
4425;DHT22;2225;53.568;13.266;2023-11-22T01:10:05;4.90;94.40
4425;DHT22;2225;53.568;13.266;2023-11-22T01:12:33;4.90;94.30
4425;DHT22;2225;53.568;13.266;2023-11-22T01:15:00;4.90;94.30
4425;DHT22;2225;53.568;13.266;2023-11-22T01:17:27;4.80;94.30
4425;DHT22;2225;53.568;13.266;2023-11-22T01:19:54;4.80;94.30
4425;DHT22;2225;53.568;13.266;2023-11-22T01:22:21;4.80;94.30
4425;DHT22;2225;53.568;13.266;2023-11-22T01:24:48;4.80;94.20
4425;DHT22;2225;53.568;13.266;2023-11-22T01:27:15;4.70;94.30
4425;DHT22;2225;53.568;13.266;2023-11-22T01:29:42;4.70;94.20
4425;DHT22;2225;53.568;13.266;2023-11-22T01:32:09;4.70;94.20
4425;DHT22;2225;53.568;13.266;2023-11-22T01:34:36;4.60;94.30
4425;DHT22;2225;53.568;13.266;2023-11-22T01:37:03;4.60;94.30
4425;DHT22;2225;53.568;13.266;2023-11-22T01:39:31;4.50;94.30
4425;DHT22;2225;53.568;13.266;2023-11-22T01:41:58;4.50;94.30
4425;DHT22;2225;53.568;13.266;2023-11-22T01:44:25;4.40;94.30
4425;DHT22;2225;53.568;13.266;2023-11-22T01:46:54;4.40;94.40
4425;DHT22;2225;53.568;13.266;2023-11-22T01:49:22;4.30;94.50
4425;DHT22;2225;53.568;13.266;2023-11-22T01:51:50;4.30;94.40
4425;DHT22;2225;53.568;13.266;2023-11-22T01:54:18;4.20;94.50
4425;DHT22;2225;53.568;13.266;2023-11-22T01:56:45;4.20;94.50
4425;DHT22;2225;53.568;13.266;2023-11-22T01:59:12;4.10;94.40
4425;DHT22;2225;53.568;13.266;2023-11-22T02:01:42;4.10;94.40
4425;DHT22;2225;53.568;13.266;2023-11-22T02:04:12;4.10;94.40
4425;DHT22;2225;53.568;13.266;2023-11-22T02:06:39;4.00;94.40
4425;DHT22;2225;53.568;13.266;2023-11-22T02:09:06;4.00;94.40
4425;DHT22;2225;53.568;13.266;2023-11-22T02:11:40;4.00;94.50
4425;DHT22;2225;53.568;13.266;2023-11-22T02:14:08;4.00;94.50
4425;DHT22;2225;53.568;13.266;2023-11-22T02:16:37;3.90;94.50
4425;DHT22;2225;53.568;13.266;2023-11-22T02:19:06;3.90;94.60
4425;DHT22;2225;53.568;13.266;2023-11-22T02:21:33;3.90;94.70
4425;DHT22;2225;53.568;13.266;2023-11-22T02:24:00;3.80;94.60
4425;DHT22;2225;53.568;13.266;2023-11-22T02:26:28;3.80;94.70
4425;DHT22;2225;53.568;13.266;2023-11-22T02:28:55;3.80;94.70
4425;DHT22;2225;53.568;13.266;2023-11-22T02:31:22;3.70;94.80
4425;DHT22;2225;53.568;13.266;2023-11-22T02:33:50;3.70;94.80
4425;DHT22;2225;53.568;13.266;2023-11-22T02:36:18;3.70;94.90
4425;DHT22;2225;53.568;13.266;2023-11-22T02:38:44;3.60;94.90
4425;DHT22;2225;53.568;13.266;2023-11-22T02:41:12;3.70;95.10
4425;DHT22;2225;53.568;13.266;2023-11-22T02:43:40;3.60;95.10
4425;DHT22;2225;53.568;13.266;2023-11-22T02:46:11;3.60;95.10
4425;DHT22;2225;53.568;13.266;2023-11-22T02:48:38;3.60;95.20
4425;DHT22;2225;53.568;13.266;2023-11-22T02:51:05;3.60;95.30
4425;DHT22;2225;53.568;13.266;2023-11-22T02:53:33;3.60;95.30
4425;DHT22;2225;53.568;13.266;2023-11-22T02:56:01;3.60;95.30
4425;DHT22;2225;53.568;13.266;2023-11-22T02:58:29;3.60;95.30
4425;DHT22;2225;53.568;13.266;2023-11-22T03:00:57;3.50;95.20
4425;DHT22;2225;53.568;13.266;2023-11-22T03:03:24;3.50;95.20
4425;DHT22;2225;53.568;13.266;2023-11-22T03:05:51;3.50;95.20
4425;DHT22;2225;53.568;13.266;2023-11-22T03:08:18;3.50;95.20
4425;DHT22;2225;53.568;13.266;2023-11-22T03:10:57;3.40;95.10
4425;DHT22;2225;53.568;13.266;2023-11-22T03:13:24;3.40;95.20
4425;DHT22;2225;53.568;13.266;2023-11-22T03:15:51;3.40;95.10
4425;DHT22;2225;53.568;13.266;2023-11-22T03:18:19;3.40;95.10
4425;DHT22;2225;53.568;13.266;2023-11-22T03:20:48;3.40;95.10
4425;DHT22;2225;53.568;13.266;2023-11-22T03:23:15;3.30;95.20
4425;DHT22;2225;53.568;13.266;2023-11-22T03:25:43;3.30;95.20
4425;DHT22;2225;53.568;13.266;2023-11-22T03:28:12;3.30;95.20
4425;DHT22;2225;53.568;13.266;2023-11-22T03:30:39;3.20;95.30
4425;DHT22;2225;53.568;13.266;2023-11-22T03:33:08;3.20;95.20
4425;DHT22;2225;53.568;13.266;2023-11-22T03:35:35;3.20;95.20
4425;DHT22;2225;53.568;13.266;2023-11-22T03:38:03;3.20;95.20
4425;DHT22;2225;53.568;13.266;2023-11-22T03:40:29;3.20;95.10
4425;DHT22;2225;53.568;13.266;2023-11-22T03:42:56;3.10;95.30
4425;DHT22;2225;53.568;13.266;2023-11-22T03:45:23;3.10;95.00
4425;DHT22;2225;53.568;13.266;2023-11-22T03:47:52;3.10;95.00
4425;DHT22;2225;53.568;13.266;2023-11-22T03:50:19;3.10;95.10
4425;DHT22;2225;53.568;13.266;2023-11-22T03:52:46;3.00;95.10
4425;DHT22;2225;53.568;13.266;2023-11-22T03:55:13;3.00;95.10
4425;DHT22;2225;53.568;13.266;2023-11-22T03:57:40;3.00;95.10
4425;DHT22;2225;53.568;13.266;2023-11-22T04:00:08;3.00;95.20
4425;DHT22;2225;53.568;13.266;2023-11-22T04:02:39;2.90;95.20
4425;DHT22;2225;53.568;13.266;2023-11-22T04:05:10;2.90;95.10
4425;DHT22;2225;53.568;13.266;2023-11-22T04:07:38;2.90;95.10
4425;DHT22;2225;53.568;13.266;2023-11-22T04:10:06;2.90;95.20
4425;DHT22;2225;53.568;13.266;2023-11-22T04:12:33;2.80;95.10
4425;DHT22;2225;53.568;13.266;2023-11-22T04:15:02;2.80;95.00
4425;DHT22;2225;53.568;13.266;2023-11-22T04:17:30;2.80;95.10
4425;DHT22;2225;53.568;13.266;2023-11-22T04:19:59;2.70;95.10
4425;DHT22;2225;53.568;13.266;2023-11-22T04:22:26;2.70;95.00
4425;DHT22;2225;53.568;13.266;2023-11-22T04:24:53;2.70;95.20
4425;DHT22;2225;53.568;13.266;2023-11-22T04:27:20;2.70;95.40
4425;DHT22;2225;53.568;13.266;2023-11-22T04:29:47;2.70;95.60
4425;DHT22;2225;53.568;13.266;2023-11-22T04:32:14;2.80;95.70
4425;DHT22;2225;53.568;13.266;2023-11-22T04:34:42;2.70;95.90
4425;DHT22;2225;53.568;13.266;2023-11-22T04:37:08;2.70;95.90
4425;DHT22;2225;53.568;13.266;2023-11-22T04:39:35;2.70;96.00
4425;DHT22;2225;53.568;13.266;2023-11-22T04:42:02;2.70;96.00
4425;DHT22;2225;53.568;13.266;2023-11-22T04:44:30;2.70;96.00
4425;DHT22;2225;53.568;13.266;2023-11-22T04:46:58;2.70;96.00
4425;DHT22;2225;53.568;13.266;2023-11-22T04:49:26;2.70;96.00
4425;DHT22;2225;53.568;13.266;2023-11-22T04:51:53;2.60;96.00
4425;DHT22;2225;53.568;13.266;2023-11-22T04:54:21;2.60;96.10
4425;DHT22;2225;53.568;13.266;2023-11-22T04:56:48;2.70;96.10
4425;DHT22;2225;53.568;13.266;2023-11-22T04:59:15;2.60;96.10
4425;DHT22;2225;53.568;13.266;2023-11-22T05:01:42;2.60;96.50
4425;DHT22;2225;53.568;13.266;2023-11-22T05:04:09;2.60;96.10
4425;DHT22;2225;53.568;13.266;2023-11-22T05:06:37;2.60;96.10
4425;DHT22;2225;53.568;13.266;2023-11-22T05:09:04;2.50;96.00
4425;DHT22;2225;53.568;13.266;2023-11-22T05:11:32;2.50;96.00
4425;DHT22;2225;53.568;13.266;2023-11-22T05:13:59;2.50;96.10
4425;DHT22;2225;53.568;13.266;2023-11-22T05:16:26;2.50;96.10
4425;DHT22;2225;53.568;13.266;2023-11-22T05:18:53;2.50;96.10
4425;DHT22;2225;53.568;13.266;2023-11-22T05:21:20;2.50;96.10
4425;DHT22;2225;53.568;13.266;2023-11-22T05:23:46;2.50;96.10
4425;DHT22;2225;53.568;13.266;2023-11-22T05:26:13;2.50;96.10
4425;DHT22;2225;53.568;13.266;2023-11-22T05:28:40;2.50;96.10
4425;DHT22;2225;53.568;13.266;2023-11-22T05:31:07;2.40;96.10
4425;DHT22;2225;53.568;13.266;2023-11-22T05:33:34;2.50;96.10
4425;DHT22;2225;53.568;13.266;2023-11-22T05:36:01;2.40;96.00
4425;DHT22;2225;53.568;13.266;2023-11-22T05:38:28;2.50;96.00
4425;DHT22;2225;53.568;13.266;2023-11-22T05:40:55;2.40;96.00
4425;DHT22;2225;53.568;13.266;2023-11-22T05:43:22;2.40;96.10
4425;DHT22;2225;53.568;13.266;2023-11-22T05:45:53;2.40;96.20
4425;DHT22;2225;53.568;13.266;2023-11-22T05:48:21;2.40;96.20
4425;DHT22;2225;53.568;13.266;2023-11-22T05:50:48;2.40;96.20
4425;DHT22;2225;53.568;13.266;2023-11-22T05:53:15;2.40;96.20
4425;DHT22;2225;53.568;13.266;2023-11-22T05:55:48;2.40;96.10
4425;DHT22;2225;53.568;13.266;2023-11-22T05:58:16;2.40;96.10
4425;DHT22;2225;53.568;13.266;2023-11-22T06:00:44;2.40;96.00
4425;DHT22;2225;53.568;13.266;2023-11-22T06:03:12;2.40;95.90
4425;DHT22;2225;53.568;13.266;2023-11-22T06:05:40;2.30;95.80
4425;DHT22;2225;53.568;13.266;2023-11-22T06:08:07;2.30;95.80
4425;DHT22;2225;53.568;13.266;2023-11-22T06:10:36;2.30;95.80
4425;DHT22;2225;53.568;13.266;2023-11-22T06:13:04;2.30;95.80
4425;DHT22;2225;53.568;13.266;2023-11-22T06:15:31;2.30;95.80
4425;DHT22;2225;53.568;13.266;2023-11-22T06:17:59;2.30;95.80
4425;DHT22;2225;53.568;13.266;2023-11-22T06:20:26;2.30;95.80
4425;DHT22;2225;53.568;13.266;2023-11-22T06:22:54;2.20;95.70
4425;DHT22;2225;53.568;13.266;2023-11-22T06:25:21;2.20;95.70
4425;DHT22;2225;53.568;13.266;2023-11-22T06:27:48;2.20;95.70
4425;DHT22;2225;53.568;13.266;2023-11-22T06:30:15;2.20;95.60
4425;DHT22;2225;53.568;13.266;2023-11-22T06:32:42;2.10;95.60
4425;DHT22;2225;53.568;13.266;2023-11-22T06:35:09;2.10;95.60
4425;DHT22;2225;53.568;13.266;2023-11-22T06:37:40;2.10;95.70
4425;DHT22;2225;53.568;13.266;2023-11-22T06:40:07;2.10;95.70
4425;DHT22;2225;53.568;13.266;2023-11-22T06:42:34;2.10;95.70
4425;DHT22;2225;53.568;13.266;2023-11-22T06:45:01;2.10;95.70
4425;DHT22;2225;53.568;13.266;2023-11-22T06:47:28;2.10;95.70
4425;DHT22;2225;53.568;13.266;2023-11-22T06:49:55;2.00;95.60
4425;DHT22;2225;53.568;13.266;2023-11-22T06:52:22;2.00;95.70
4425;DHT22;2225;53.568;13.266;2023-11-22T06:54:49;2.00;95.80
4425;DHT22;2225;53.568;13.266;2023-11-22T06:57:16;2.10;96.00
4425;DHT22;2225;53.568;13.266;2023-11-22T06:59:43;2.10;96.10
4425;DHT22;2225;53.568;13.266;2023-11-22T07:02:10;2.00;96.10
4425;DHT22;2225;53.568;13.266;2023-11-22T07:04:37;2.10;96.20
4425;DHT22;2225;53.568;13.266;2023-11-22T07:07:04;2.10;96.30
4425;DHT22;2225;53.568;13.266;2023-11-22T07:09:31;2.10;96.20
4425;DHT22;2225;53.568;13.266;2023-11-22T07:11:59;2.10;96.10
4425;DHT22;2225;53.568;13.266;2023-11-22T07:14:26;2.10;96.20
4425;DHT22;2225;53.568;13.266;2023-11-22T07:16:53;2.20;96.30
4425;DHT22;2225;53.568;13.266;2023-11-22T07:19:20;2.20;96.30
4425;DHT22;2225;53.568;13.266;2023-11-22T07:21:47;2.20;96.40
4425;DHT22;2225;53.568;13.266;2023-11-22T07:24:15;2.20;96.50
4425;DHT22;2225;53.568;13.266;2023-11-22T07:26:42;2.30;96.50
4425;DHT22;2225;53.568;13.266;2023-11-22T07:29:09;2.30;96.60
4425;DHT22;2225;53.568;13.266;2023-11-22T07:31:39;2.40;96.80
4425;DHT22;2225;53.568;13.266;2023-11-22T07:34:06;2.40;96.80
4425;DHT22;2225;53.568;13.266;2023-11-22T07:36:33;2.50;96.80
4425;DHT22;2225;53.568;13.266;2023-11-22T07:39:00;2.50;96.80
4425;DHT22;2225;53.568;13.266;2023-11-22T07:41:27;2.60;96.80
4425;DHT22;2225;53.568;13.266;2023-11-22T07:43:54;2.60;96.80
4425;DHT22;2225;53.568;13.266;2023-11-22T07:46:21;2.70;96.90
4425;DHT22;2225;53.568;13.266;2023-11-22T07:48:48;2.70;96.90
4425;DHT22;2225;53.568;13.266;2023-11-22T07:51:16;2.80;96.90
4425;DHT22;2225;53.568;13.266;2023-11-22T07:53:43;2.80;96.90
4425;DHT22;2225;53.568;13.266;2023-11-22T07:56:10;2.90;96.90
4425;DHT22;2225;53.568;13.266;2023-11-22T07:58:38;2.90;96.90
4425;DHT22;2225;53.568;13.266;2023-11-22T08:01:05;3.00;96.80
4425;DHT22;2225;53.568;13.266;2023-11-22T08:03:36;3.00;96.70
4425;DHT22;2225;53.568;13.266;2023-11-22T08:06:03;3.10;96.90
4425;DHT22;2225;53.568;13.266;2023-11-22T08:08:31;3.20;96.80
4425;DHT22;2225;53.568;13.266;2023-11-22T08:11:01;3.20;96.90
4425;DHT22;2225;53.568;13.266;2023-11-22T08:13:28;3.30;96.90
4425;DHT22;2225;53.568;13.266;2023-11-22T08:15:56;3.30;96.90
4425;DHT22;2225;53.568;13.266;2023-11-22T08:18:24;3.40;96.80
4425;DHT22;2225;53.568;13.266;2023-11-22T08:20:51;3.40;96.80
4425;DHT22;2225;53.568;13.266;2023-11-22T08:23:18;3.40;96.90
4425;DHT22;2225;53.568;13.266;2023-11-22T08:25:45;3.60;96.90
4425;DHT22;2225;53.568;13.266;2023-11-22T08:28:12;3.60;96.90
4425;DHT22;2225;53.568;13.266;2023-11-22T08:30:39;3.60;96.90
4425;DHT22;2225;53.568;13.266;2023-11-22T08:33:07;3.70;96.90
4425;DHT22;2225;53.568;13.266;2023-11-22T08:35:34;3.80;96.90
4425;DHT22;2225;53.568;13.266;2023-11-22T08:38:01;3.90;97.00
4425;DHT22;2225;53.568;13.266;2023-11-22T08:40:30;4.00;97.00
4425;DHT22;2225;53.568;13.266;2023-11-22T08:42:57;4.00;96.90
4425;DHT22;2225;53.568;13.266;2023-11-22T08:45:24;4.10;96.90
4425;DHT22;2225;53.568;13.266;2023-11-22T08:47:51;4.20;96.90
4425;DHT22;2225;53.568;13.266;2023-11-22T08:50:18;4.30;97.00
4425;DHT22;2225;53.568;13.266;2023-11-22T08:52:46;4.40;97.00
4425;DHT22;2225;53.568;13.266;2023-11-22T08:55:13;4.40;97.10
4425;DHT22;2225;53.568;13.266;2023-11-22T08:57:41;4.60;97.20
4425;DHT22;2225;53.568;13.266;2023-11-22T09:00:09;4.60;97.30
4425;DHT22;2225;53.568;13.266;2023-11-22T09:02:37;4.70;97.40
4425;DHT22;2225;53.568;13.266;2023-11-22T09:05:06;4.80;97.40
4425;DHT22;2225;53.568;13.266;2023-11-22T09:07:39;4.80;97.50
4425;DHT22;2225;53.568;13.266;2023-11-22T09:10:06;4.90;97.70
4425;DHT22;2225;53.568;13.266;2023-11-22T09:12:38;5.00;97.70
4425;DHT22;2225;53.568;13.266;2023-11-22T09:15:08;5.20;97.80
4425;DHT22;2225;53.568;13.266;2023-11-22T09:17:41;5.30;97.80
4425;DHT22;2225;53.568;13.266;2023-11-22T09:20:10;5.40;97.70
4425;DHT22;2225;53.568;13.266;2023-11-22T09:22:42;5.50;97.60
4425;DHT22;2225;53.568;13.266;2023-11-22T09:25:25;5.60;97.40
4425;DHT22;2225;53.568;13.266;2023-11-22T09:27:55;5.70;97.20
4425;DHT22;2225;53.568;13.266;2023-11-22T09:30:27;5.80;97.00
4425;DHT22;2225;53.568;13.266;2023-11-22T09:33:13;5.90;96.90
4425;DHT22;2225;53.568;13.266;2023-11-22T09:35:45;6.00;96.60
4425;DHT22;2225;53.568;13.266;2023-11-22T09:38:14;6.10;95.80
4425;DHT22;2225;53.568;13.266;2023-11-22T09:40:46;6.20;95.50
4425;DHT22;2225;53.568;13.266;2023-11-22T09:43:15;6.30;95.40
4425;DHT22;2225;53.568;13.266;2023-11-22T09:45:48;6.30;94.70
4425;DHT22;2225;53.568;13.266;2023-11-22T09:48:23;6.30;94.30
4425;DHT22;2225;53.568;13.266;2023-11-22T09:53:56;6.40;93.80
4425;DHT22;2225;53.568;13.266;2023-11-22T09:56:24;6.50;93.70
4425;DHT22;2225;53.568;13.266;2023-11-22T09:58:53;6.50;93.50
4425;DHT22;2225;53.568;13.266;2023-11-22T10:01:23;6.50;93.50
4425;DHT22;2225;53.568;13.266;2023-11-22T10:03:50;6.60;93.50
4425;DHT22;2225;53.568;13.266;2023-11-22T10:06:18;6.60;93.40
4425;DHT22;2225;53.568;13.266;2023-11-22T10:08:45;6.70;93.60
4425;DHT22;2225;53.568;13.266;2023-11-22T10:11:18;6.80;93.60
4425;DHT22;2225;53.568;13.266;2023-11-22T10:13:51;6.80;92.80
4425;DHT22;2225;53.568;13.266;2023-11-22T10:16:18;6.90;92.90
4425;DHT22;2225;53.568;13.266;2023-11-22T10:18:48;7.00;93.10
4425;DHT22;2225;53.568;13.266;2023-11-22T10:21:26;7.00;93.10
4425;DHT22;2225;53.568;13.266;2023-11-22T10:24:03;7.10;92.70
4425;DHT22;2225;53.568;13.266;2023-11-22T10:26:31;7.20;92.80
4425;DHT22;2225;53.568;13.266;2023-11-22T10:28:58;7.30;92.30
4425;DHT22;2225;53.568;13.266;2023-11-22T10:31:26;7.30;92.10
4425;DHT22;2225;53.568;13.266;2023-11-22T10:33:54;7.30;91.60
4425;DHT22;2225;53.568;13.266;2023-11-22T10:36:24;7.40;91.60
4425;DHT22;2225;53.568;13.266;2023-11-22T10:38:51;7.40;91.70
4425;DHT22;2225;53.568;13.266;2023-11-22T10:41:20;7.40;91.70
4425;DHT22;2225;53.568;13.266;2023-11-22T10:43:52;7.50;91.80
4425;DHT22;2225;53.568;13.266;2023-11-22T10:46:27;7.60;91.40
4425;DHT22;2225;53.568;13.266;2023-11-22T10:48:55;7.60;91.20
4425;DHT22;2225;53.568;13.266;2023-11-22T10:51:23;7.70;91.40
4425;DHT22;2225;53.568;13.266;2023-11-22T10:53:58;7.70;90.40
4425;DHT22;2225;53.568;13.266;2023-11-22T10:56:28;7.70;89.40
4425;DHT22;2225;53.568;13.266;2023-11-22T10:58:58;7.80;87.90
4425;DHT22;2225;53.568;13.266;2023-11-22T11:01:29;7.80;88.10
4425;DHT22;2225;53.568;13.266;2023-11-22T11:04:19;7.80;89.20
4425;DHT22;2225;53.568;13.266;2023-11-22T11:06:54;7.90;88.10
4425;DHT22;2225;53.568;13.266;2023-11-22T11:09:22;7.90;88.50
4425;DHT22;2225;53.568;13.266;2023-11-22T11:11:53;7.90;89.60
4425;DHT22;2225;53.568;13.266;2023-11-22T11:14:20;8.00;89.80
4425;DHT22;2225;53.568;13.266;2023-11-22T11:16:48;8.00;89.30
4425;DHT22;2225;53.568;13.266;2023-11-22T11:19:17;8.00;89.20
4425;DHT22;2225;53.568;13.266;2023-11-22T11:21:44;8.10;85.30
4425;DHT22;2225;53.568;13.266;2023-11-22T11:24:12;8.10;87.20
4425;DHT22;2225;53.568;13.266;2023-11-22T11:26:39;8.10;87.20
4425;DHT22;2225;53.568;13.266;2023-11-22T11:29:06;8.10;86.80
4425;DHT22;2225;53.568;13.266;2023-11-22T11:31:39;8.10;87.10
4425;DHT22;2225;53.568;13.266;2023-11-22T11:34:07;8.20;86.20
4425;DHT22;2225;53.568;13.266;2023-11-22T11:36:37;8.20;86.40
4425;DHT22;2225;53.568;13.266;2023-11-22T11:39:12;8.20;85.60
4425;DHT22;2225;53.568;13.266;2023-11-22T11:41:42;8.20;83.70
4425;DHT22;2225;53.568;13.266;2023-11-22T11:44:09;8.20;85.70
4425;DHT22;2225;53.568;13.266;2023-11-22T11:46:38;8.30;84.80
4425;DHT22;2225;53.568;13.266;2023-11-22T11:49:07;8.30;85.60
4425;DHT22;2225;53.568;13.266;2023-11-22T11:51:35;8.30;84.80
4425;DHT22;2225;53.568;13.266;2023-11-22T11:54:04;8.30;84.30
4425;DHT22;2225;53.568;13.266;2023-11-22T11:56:33;8.30;83.40
4425;DHT22;2225;53.568;13.266;2023-11-22T11:59:01;8.40;83.60
4425;DHT22;2225;53.568;13.266;2023-11-22T12:01:30;8.40;82.80
4425;DHT22;2225;53.568;13.266;2023-11-22T12:04:02;8.30;82.10
4425;DHT22;2225;53.568;13.266;2023-11-22T12:06:30;8.40;82.40
4425;DHT22;2225;53.568;13.266;2023-11-22T12:09:03;8.40;83.50
4425;DHT22;2225;53.568;13.266;2023-11-22T12:11:30;8.40;83.20
4425;DHT22;2225;53.568;13.266;2023-11-22T12:13:58;8.40;82.60
4425;DHT22;2225;53.568;13.266;2023-11-22T12:16:25;8.40;83.30
4425;DHT22;2225;53.568;13.266;2023-11-22T12:18:55;8.50;84.00
4425;DHT22;2225;53.568;13.266;2023-11-22T12:21:24;8.50;83.50
4425;DHT22;2225;53.568;13.266;2023-11-22T12:23:51;8.50;83.10
4425;DHT22;2225;53.568;13.266;2023-11-22T12:26:20;8.50;81.20
4425;DHT22;2225;53.568;13.266;2023-11-22T12:28:48;8.60;79.90
4425;DHT22;2225;53.568;13.266;2023-11-22T12:31:30;8.60;77.80
4425;DHT22;2225;53.568;13.266;2023-11-22T12:34:03;8.60;77.90
4425;DHT22;2225;53.568;13.266;2023-11-22T12:36:31;8.50;76.20
4425;DHT22;2225;53.568;13.266;2023-11-22T12:38:59;8.50;74.40
4425;DHT22;2225;53.568;13.266;2023-11-22T12:41:27;8.50;73.30
4425;DHT22;2225;53.568;13.266;2023-11-22T12:44:06;8.40;73.80
4425;DHT22;2225;53.568;13.266;2023-11-22T12:46:51;8.40;73.80
4425;DHT22;2225;53.568;13.266;2023-11-22T12:49:26;8.50;74.60
4425;DHT22;2225;53.568;13.266;2023-11-22T12:51:55;8.40;75.00
4425;DHT22;2225;53.568;13.266;2023-11-22T12:54:26;8.40;75.30
4425;DHT22;2225;53.568;13.266;2023-11-22T12:56:53;8.40;75.70
4425;DHT22;2225;53.568;13.266;2023-11-22T12:59:25;8.40;76.60
4425;DHT22;2225;53.568;13.266;2023-11-22T13:01:58;8.40;77.00
4425;DHT22;2225;53.568;13.266;2023-11-22T13:04:28;8.50;77.00
4425;DHT22;2225;53.568;13.266;2023-11-22T13:06:56;8.40;76.90
4425;DHT22;2225;53.568;13.266;2023-11-22T13:09:26;8.40;77.30
4425;DHT22;2225;53.568;13.266;2023-11-22T13:11:53;8.40;78.50
4425;DHT22;2225;53.568;13.266;2023-11-22T13:14:20;8.50;77.80
4425;DHT22;2225;53.568;13.266;2023-11-22T13:16:47;8.50;77.90
4425;DHT22;2225;53.568;13.266;2023-11-22T13:19:14;8.50;77.40
4425;DHT22;2225;53.568;13.266;2023-11-22T13:21:41;8.50;77.60
4425;DHT22;2225;53.568;13.266;2023-11-22T13:24:08;8.50;76.20
4425;DHT22;2225;53.568;13.266;2023-11-22T13:26:36;8.50;77.40
4425;DHT22;2225;53.568;13.266;2023-11-22T13:29:03;8.40;77.30
4425;DHT22;2225;53.568;13.266;2023-11-22T13:31:30;8.50;77.90
4425;DHT22;2225;53.568;13.266;2023-11-22T13:33:57;8.40;76.00
4425;DHT22;2225;53.568;13.266;2023-11-22T13:36:24;8.50;77.00
4425;DHT22;2225;53.568;13.266;2023-11-22T13:38:51;8.40;76.60
4425;DHT22;2225;53.568;13.266;2023-11-22T13:41:18;8.40;77.30
4425;DHT22;2225;53.568;13.266;2023-11-22T13:43:45;8.40;77.80
4425;DHT22;2225;53.568;13.266;2023-11-22T13:46:13;8.40;77.90
4425;DHT22;2225;53.568;13.266;2023-11-22T13:48:42;8.40;77.50
4425;DHT22;2225;53.568;13.266;2023-11-22T13:51:09;8.40;76.20
4425;DHT22;2225;53.568;13.266;2023-11-22T13:53:37;8.40;77.50
4425;DHT22;2225;53.568;13.266;2023-11-22T13:56:10;8.30;76.40
4425;DHT22;2225;53.568;13.266;2023-11-22T13:58:39;8.30;76.10
4425;DHT22;2225;53.568;13.266;2023-11-22T14:01:06;8.30;76.70
4425;DHT22;2225;53.568;13.266;2023-11-22T14:03:38;8.30;76.60
4425;DHT22;2225;53.568;13.266;2023-11-22T14:06:06;8.20;77.10
4425;DHT22;2225;53.568;13.266;2023-11-22T14:08:33;8.20;77.40
4425;DHT22;2225;53.568;13.266;2023-11-22T14:11:00;8.20;76.70
4425;DHT22;2225;53.568;13.266;2023-11-22T14:13:27;8.20;75.30
4425;DHT22;2225;53.568;13.266;2023-11-22T14:15:54;8.20;75.50
4425;DHT22;2225;53.568;13.266;2023-11-22T14:18:21;8.10;74.90
4425;DHT22;2225;53.568;13.266;2023-11-22T14:20:48;8.10;75.10
4425;DHT22;2225;53.568;13.266;2023-11-22T14:23:15;8.00;74.00
4425;DHT22;2225;53.568;13.266;2023-11-22T14:25:44;8.00;74.60
4425;DHT22;2225;53.568;13.266;2023-11-22T14:28:11;8.00;74.40
4425;DHT22;2225;53.568;13.266;2023-11-22T14:30:37;7.90;72.90
4425;DHT22;2225;53.568;13.266;2023-11-22T14:33:05;7.90;73.50
4425;DHT22;2225;53.568;13.266;2023-11-22T14:35:34;7.80;73.90
4425;DHT22;2225;53.568;13.266;2023-11-22T14:38:02;7.80;74.00
4425;DHT22;2225;53.568;13.266;2023-11-22T14:40:32;7.80;73.50
4425;DHT22;2225;53.568;13.266;2023-11-22T14:42:59;7.70;73.30
4425;DHT22;2225;53.568;13.266;2023-11-22T14:45:29;7.70;73.30
4425;DHT22;2225;53.568;13.266;2023-11-22T14:47:57;7.60;73.00
4425;DHT22;2225;53.568;13.266;2023-11-22T14:50:25;7.60;74.40
4425;DHT22;2225;53.568;13.266;2023-11-22T14:52:54;7.60;74.60
4425;DHT22;2225;53.568;13.266;2023-11-22T14:55:22;7.60;74.20
4425;DHT22;2225;53.568;13.266;2023-11-22T14:57:52;7.60;75.10
4425;DHT22;2225;53.568;13.266;2023-11-22T15:00:20;7.60;75.20
4425;DHT22;2225;53.568;13.266;2023-11-22T15:02:48;7.60;74.90
4425;DHT22;2225;53.568;13.266;2023-11-22T15:05:21;7.60;75.00
4425;DHT22;2225;53.568;13.266;2023-11-22T15:07:53;7.60;74.30
4425;DHT22;2225;53.568;13.266;2023-11-22T15:10:25;7.60;75.20
4425;DHT22;2225;53.568;13.266;2023-11-22T15:12:53;7.60;74.60
4425;DHT22;2225;53.568;13.266;2023-11-22T15:15:22;7.50;75.10
4425;DHT22;2225;53.568;13.266;2023-11-22T15:17:53;7.50;74.40
4425;DHT22;2225;53.568;13.266;2023-11-22T15:20:21;7.50;74.90
4425;DHT22;2225;53.568;13.266;2023-11-22T15:22:49;7.50;74.40
4425;DHT22;2225;53.568;13.266;2023-11-22T15:25:17;7.40;75.20
4425;DHT22;2225;53.568;13.266;2023-11-22T15:27:45;7.40;75.50
4425;DHT22;2225;53.568;13.266;2023-11-22T15:30:12;7.50;75.20
4425;DHT22;2225;53.568;13.266;2023-11-22T15:32:39;7.40;75.90
4425;DHT22;2225;53.568;13.266;2023-11-22T15:35:07;7.40;75.30
4425;DHT22;2225;53.568;13.266;2023-11-22T15:37:35;7.40;75.40
4425;DHT22;2225;53.568;13.266;2023-11-22T15:40:02;7.40;74.70
4425;DHT22;2225;53.568;13.266;2023-11-22T15:42:30;7.40;74.90
4425;DHT22;2225;53.568;13.266;2023-11-22T15:44:56;7.40;75.50
4425;DHT22;2225;53.568;13.266;2023-11-22T15:47:24;7.30;75.20
4425;DHT22;2225;53.568;13.266;2023-11-22T15:49:51;7.30;75.60
4425;DHT22;2225;53.568;13.266;2023-11-22T15:52:20;7.30;75.60
4425;DHT22;2225;53.568;13.266;2023-11-22T15:54:47;7.30;75.50
4425;DHT22;2225;53.568;13.266;2023-11-22T15:57:14;7.30;75.30
4425;DHT22;2225;53.568;13.266;2023-11-22T15:59:41;7.30;75.50
4425;DHT22;2225;53.568;13.266;2023-11-22T16:02:08;7.30;75.70
4425;DHT22;2225;53.568;13.266;2023-11-22T16:04:36;7.20;74.50
4425;DHT22;2225;53.568;13.266;2023-11-22T16:07:03;7.20;74.30
4425;DHT22;2225;53.568;13.266;2023-11-22T16:09:30;7.20;75.00
4425;DHT22;2225;53.568;13.266;2023-11-22T16:11:57;7.10;73.90